sensor_id;sensor_type;location;lat;lon;timestamp;temperature;humidity
18888;DHT22;9576;47.792;9.628;2024-03-23T00:56:00;9.60;99.90
18888;DHT22;9576;47.792;9.628;2024-03-23T00:59:03;9.60;99.90
18888;DHT22;9576;47.792;9.628;2024-03-23T01:02:05;9.50;99.90
18888;DHT22;9576;47.792;9.628;2024-03-23T01:05:07;9.40;99.90
18888;DHT22;9576;47.792;9.628;2024-03-23T01:08:08;9.40;99.90
18888;DHT22;9576;47.792;9.628;2024-03-23T01:11:11;9.30;99.90
18888;DHT22;9576;47.792;9.628;2024-03-23T01:14:13;9.30;99.90
18888;DHT22;9576;47.792;9.628;2024-03-23T01:17:14;9.30;99.90
18888;DHT22;9576;47.792;9.628;2024-03-23T01:20:16;9.10;99.90
18888;DHT22;9576;47.792;9.628;2024-03-23T01:23:17;9.00;99.90
18888;DHT22;9576;47.792;9.628;2024-03-23T01:26:20;9.00;99.90
18888;DHT22;9576;47.792;9.628;2024-03-23T01:29:21;8.90;99.90
18888;DHT22;9576;47.792;9.628;2024-03-23T01:32:23;8.80;99.90
18888;DHT22;9576;47.792;9.628;2024-03-23T01:35:24;8.80;99.90
18888;DHT22;9576;47.792;9.628;2024-03-23T01:38:25;8.80;99.90
18888;DHT22;9576;47.792;9.628;2024-03-23T01:41:28;8.80;99.90
18888;DHT22;9576;47.792;9.628;2024-03-23T01:44:29;8.80;99.90
18888;DHT22;9576;47.792;9.628;2024-03-23T01:47:31;8.80;99.90
18888;DHT22;9576;47.792;9.628;2024-03-23T01:50:34;8.80;99.90
18888;DHT22;9576;47.792;9.628;2024-03-23T01:53:35;8.80;99.90
18888;DHT22;9576;47.792;9.628;2024-03-23T01:56:38;8.70;99.90
18888;DHT22;9576;47.792;9.628;2024-03-23T01:59:39;8.70;99.90
18888;DHT22;9576;47.792;9.628;2024-03-23T02:02:42;8.80;99.90
18888;DHT22;9576;47.792;9.628;2024-03-23T02:05:44;8.60;99.90
18888;DHT22;9576;47.792;9.628;2024-03-23T02:08:46;8.60;99.90
18888;DHT22;9576;47.792;9.628;2024-03-23T02:11:48;8.70;99.90
18888;DHT22;9576;47.792;9.628;2024-03-23T02:14:50;8.70;99.90
18888;DHT22;9576;47.792;9.628;2024-03-23T02:17:51;8.70;99.90
18888;DHT22;9576;47.792;9.628;2024-03-23T02:20:53;8.70;99.90
18888;DHT22;9576;47.792;9.628;2024-03-23T02:23:55;8.60;99.90
18888;DHT22;9576;47.792;9.628;2024-03-23T02:26:57;8.70;99.90
18888;DHT22;9576;47.792;9.628;2024-03-23T02:29:58;8.70;99.90
18888;DHT22;9576;47.792;9.628;2024-03-23T02:33:00;8.70;99.90
18888;DHT22;9576;47.792;9.628;2024-03-23T02:36:02;8.80;99.90
18888;DHT22;9576;47.792;9.628;2024-03-23T02:39:05;8.80;99.90
18888;DHT22;9576;47.792;9.628;2024-03-23T02:42:07;8.80;99.90
18888;DHT22;9576;47.792;9.628;2024-03-23T02:45:09;8.80;99.90
18888;DHT22;9576;47.792;9.628;2024-03-23T02:48:10;8.80;99.90
18888;DHT22;9576;47.792;9.628;2024-03-23T02:51:11;8.80;99.90
18888;DHT22;9576;47.792;9.628;2024-03-23T02:54:15;8.80;99.90
18888;DHT22;9576;47.792;9.628;2024-03-23T02:57:16;8.80;99.90
18888;DHT22;9576;47.792;9.628;2024-03-23T03:00:18;8.80;99.90
18888;DHT22;9576;47.792;9.628;2024-03-23T03:03:19;8.80;99.90
18888;DHT22;9576;47.792;9.628;2024-03-23T03:06:24;8.80;99.90
18888;DHT22;9576;47.792;9.628;2024-03-23T03:09:26;8.80;99.90
18888;DHT22;9576;47.792;9.628;2024-03-23T03:12:28;8.80;99.90
18888;DHT22;9576;47.792;9.628;2024-03-23T03:15:29;8.90;99.90
18888;DHT22;9576;47.792;9.628;2024-03-23T03:18:31;8.80;99.90
18888;DHT22;9576;47.792;9.628;2024-03-23T03:21:31;8.60;99.90
18888;DHT22;9576;47.792;9.628;2024-03-23T03:24:35;8.60;99.90
18888;DHT22;9576;47.792;9.628;2024-03-23T03:27:36;8.60;99.90
18888;DHT22;9576;47.792;9.628;2024-03-23T03:30:37;8.60;99.90
18888;DHT22;9576;47.792;9.628;2024-03-23T03:33:38;8.60;99.90
18888;DHT22;9576;47.792;9.628;2024-03-23T03:36:40;8.60;99.90
18888;DHT22;9576;47.792;9.628;2024-03-23T03:39:42;8.60;99.90
18888;DHT22;9576;47.792;9.628;2024-03-23T03:42:44;8.60;99.90
18888;DHT22;9576;47.792;9.628;2024-03-23T03:45:51;8.60;99.90
18888;DHT22;9576;47.792;9.628;2024-03-23T03:48:54;8.70;99.90
18888;DHT22;9576;47.792;9.628;2024-03-23T03:51:55;8.70;99.90
18888;DHT22;9576;47.792;9.628;2024-03-23T03:55:01;8.70;99.90
18888;DHT22;9576;47.792;9.628;2024-03-23T03:58:03;8.80;99.90
18888;DHT22;9576;47.792;9.628;2024-03-23T04:01:05;8.80;99.90
18888;DHT22;9576;47.792;9.628;2024-03-23T04:04:06;9.00;99.90
18888;DHT22;9576;47.792;9.628;2024-03-23T04:07:07;9.10;99.90
18888;DHT22;9576;47.792;9.628;2024-03-23T04:10:11;9.20;99.90
18888;DHT22;9576;47.792;9.628;2024-03-23T04:13:12;9.30;99.90
18888;DHT22;9576;47.792;9.628;2024-03-23T04:16:24;9.30;99.90
18888;DHT22;9576;47.792;9.628;2024-03-23T04:19:25;9.30;99.90
18888;DHT22;9576;47.792;9.628;2024-03-23T04:22:27;9.20;99.90
18888;DHT22;9576;47.792;9.628;2024-03-23T04:25:30;9.20;99.90
18888;DHT22;9576;47.792;9.628;2024-03-23T04:28:32;9.10;99.90
18888;DHT22;9576;47.792;9.628;2024-03-23T04:31:34;9.10;99.90
18888;DHT22;9576;47.792;9.628;2024-03-23T04:34:35;9.00;99.90
18888;DHT22;9576;47.792;9.628;2024-03-23T04:37:37;9.00;99.90
18888;DHT22;9576;47.792;9.628;2024-03-23T04:40:42;8.90;99.90
18888;DHT22;9576;47.792;9.628;2024-03-23T04:43:44;9.00;99.90
18888;DHT22;9576;47.792;9.628;2024-03-23T04:46:46;9.00;99.90
18888;DHT22;9576;47.792;9.628;2024-03-23T04:49:48;9.00;99.90
18888;DHT22;9576;47.792;9.628;2024-03-23T04:52:50;9.10;99.90
18888;DHT22;9576;47.792;9.628;2024-03-23T04:55:53;9.10;99.90
18888;DHT22;9576;47.792;9.628;2024-03-23T04:58:55;9.10;99.90
18888;DHT22;9576;47.792;9.628;2024-03-23T05:02:01;9.20;99.90
18888;DHT22;9576;47.792;9.628;2024-03-23T05:05:03;9.10;99.90
18888;DHT22;9576;47.792;9.628;2024-03-23T05:08:07;9.00;99.90
18888;DHT22;9576;47.792;9.628;2024-03-23T05:11:11;9.00;99.90
18888;DHT22;9576;47.792;9.628;2024-03-23T05:14:12;9.00;99.90
18888;DHT22;9576;47.792;9.628;2024-03-23T05:17:14;9.00;99.90
18888;DHT22;9576;47.792;9.628;2024-03-23T05:20:15;9.00;99.90
18888;DHT22;9576;47.792;9.628;2024-03-23T05:23:18;8.90;99.90
18888;DHT22;9576;47.792;9.628;2024-03-23T05:26:22;8.90;99.90
18888;DHT22;9576;47.792;9.628;2024-03-23T05:29:23;8.80;99.90
18888;DHT22;9576;47.792;9.628;2024-03-23T05:32:25;8.80;99.90
18888;DHT22;9576;47.792;9.628;2024-03-23T05:35:26;8.70;99.90
18888;DHT22;9576;47.792;9.628;2024-03-23T05:38:28;8.80;99.90
18888;DHT22;9576;47.792;9.628;2024-03-23T05:41:30;8.90;99.90
18888;DHT22;9576;47.792;9.628;2024-03-23T05:44:32;8.90;99.90
18888;DHT22;9576;47.792;9.628;2024-03-23T05:47:34;8.90;99.90
18888;DHT22;9576;47.792;9.628;2024-03-23T05:50:36;9.00;99.90
18888;DHT22;9576;47.792;9.628;2024-03-23T05:53:37;9.00;99.90
18888;DHT22;9576;47.792;9.628;2024-03-23T05:56:40;9.10;99.90
18888;DHT22;9576;47.792;9.628;2024-03-23T05:59:42;9.20;99.90
18888;DHT22;9576;47.792;9.628;2024-03-23T06:02:45;9.30;99.90
18888;DHT22;9576;47.792;9.628;2024-03-23T06:05:46;9.30;99.90
18888;DHT22;9576;47.792;9.628;2024-03-23T06:08:48;9.40;99.90
18888;DHT22;9576;47.792;9.628;2024-03-23T06:11:50;9.40;99.90
18888;DHT22;9576;47.792;9.628;2024-03-23T06:14:52;9.40;99.90
18888;DHT22;9576;47.792;9.628;2024-03-23T06:17:54;9.30;99.90
18888;DHT22;9576;47.792;9.628;2024-03-23T06:20:55;9.50;99.90
18888;DHT22;9576;47.792;9.628;2024-03-23T06:23:58;9.80;99.90
18888;DHT22;9576;47.792;9.628;2024-03-23T06:27:01;10.00;99.90
18888;DHT22;9576;47.792;9.628;2024-03-23T06:30:02;10.10;99.90
18888;DHT22;9576;47.792;9.628;2024-03-23T06:33:04;10.20;99.90
18888;DHT22;9576;47.792;9.628;2024-03-23T06:36:09;10.20;99.90
18888;DHT22;9576;47.792;9.628;2024-03-23T06:39:10;10.30;99.90
18888;DHT22;9576;47.792;9.628;2024-03-23T06:42:17;10.20;99.90
18888;DHT22;9576;47.792;9.628;2024-03-23T06:45:18;10.30;99.90
18888;DHT22;9576;47.792;9.628;2024-03-23T06:48:23;10.30;99.90
18888;DHT22;9576;47.792;9.628;2024-03-23T06:51:25;10.20;99.90
18888;DHT22;9576;47.792;9.628;2024-03-23T06:54:26;10.20;99.90
18888;DHT22;9576;47.792;9.628;2024-03-23T06:57:29;10.10;99.90
18888;DHT22;9576;47.792;9.628;2024-03-23T07:00:30;10.00;99.90
18888;DHT22;9576;47.792;9.628;2024-03-23T07:03:32;9.90;99.90
18888;DHT22;9576;47.792;9.628;2024-03-23T07:06:33;9.70;99.90
18888;DHT22;9576;47.792;9.628;2024-03-23T07:09:35;9.60;99.90
18888;DHT22;9576;47.792;9.628;2024-03-23T07:12:39;9.50;99.90
18888;DHT22;9576;47.792;9.628;2024-03-23T07:15:41;9.50;99.90
18888;DHT22;9576;47.792;9.628;2024-03-23T07:18:42;9.50;99.90
18888;DHT22;9576;47.792;9.628;2024-03-23T07:21:44;9.40;99.90
18888;DHT22;9576;47.792;9.628;2024-03-23T07:24:45;9.40;99.90
18888;DHT22;9576;47.792;9.628;2024-03-23T07:27:48;9.40;99.90
18888;DHT22;9576;47.792;9.628;2024-03-23T07:31:02;9.50;99.90
18888;DHT22;9576;47.792;9.628;2024-03-23T07:34:06;9.50;99.90
18888;DHT22;9576;47.792;9.628;2024-03-23T07:37:10;9.70;99.90
18888;DHT22;9576;47.792;9.628;2024-03-23T07:40:11;9.60;99.90
18888;DHT22;9576;47.792;9.628;2024-03-23T07:43:15;9.70;99.90
18888;DHT22;9576;47.792;9.628;2024-03-23T07:46:16;9.70;99.90
18888;DHT22;9576;47.792;9.628;2024-03-23T07:49:19;9.70;99.90
18888;DHT22;9576;47.792;9.628;2024-03-23T07:52:20;9.80;99.90
18888;DHT22;9576;47.792;9.628;2024-03-23T07:55:22;9.80;99.90
18888;DHT22;9576;47.792;9.628;2024-03-23T07:58:25;9.80;99.90
18888;DHT22;9576;47.792;9.628;2024-03-23T08:01:27;9.80;99.90
18888;DHT22;9576;47.792;9.628;2024-03-23T08:04:29;9.90;99.90
18888;DHT22;9576;47.792;9.628;2024-03-23T08:07:31;9.90;99.90
18888;DHT22;9576;47.792;9.628;2024-03-23T08:10:32;9.90;99.90
18888;DHT22;9576;47.792;9.628;2024-03-23T08:13:38;10.00;99.90
18888;DHT22;9576;47.792;9.628;2024-03-23T08:16:39;9.90;99.90
18888;DHT22;9576;47.792;9.628;2024-03-23T08:19:42;10.00;99.90
18888;DHT22;9576;47.792;9.628;2024-03-23T08:22:43;10.00;99.90
18888;DHT22;9576;47.792;9.628;2024-03-23T08:25:45;10.00;99.90
18888;DHT22;9576;47.792;9.628;2024-03-23T08:28:48;9.80;99.90
18888;DHT22;9576;47.792;9.628;2024-03-23T08:31:49;9.60;99.90
18888;DHT22;9576;47.792;9.628;2024-03-23T08:34:51;9.30;99.90
18888;DHT22;9576;47.792;9.628;2024-03-23T08:37:52;9.10;99.90
18888;DHT22;9576;47.792;9.628;2024-03-23T08:40:57;8.90;99.90
18888;DHT22;9576;47.792;9.628;2024-03-23T08:43:59;8.80;99.90
18888;DHT22;9576;47.792;9.628;2024-03-23T08:47:01;8.70;99.90
18888;DHT22;9576;47.792;9.628;2024-03-23T08:50:02;8.60;99.90
18888;DHT22;9576;47.792;9.628;2024-03-23T08:53:04;8.60;99.90
18888;DHT22;9576;47.792;9.628;2024-03-23T08:56:06;8.60;99.90
18888;DHT22;9576;47.792;9.628;2024-03-23T08:59:09;8.60;99.90
18888;DHT22;9576;47.792;9.628;2024-03-23T09:02:10;8.60;99.90
18888;DHT22;9576;47.792;9.628;2024-03-23T09:05:12;8.70;99.90
18888;DHT22;9576;47.792;9.628;2024-03-23T09:08:13;8.60;99.90
18888;DHT22;9576;47.792;9.628;2024-03-23T09:11:15;8.50;99.90
18888;DHT22;9576;47.792;9.628;2024-03-23T09:14:19;8.40;99.90
18888;DHT22;9576;47.792;9.628;2024-03-23T09:17:20;8.40;99.90
18888;DHT22;9576;47.792;9.628;2024-03-23T09:20:21;8.40;99.90
18888;DHT22;9576;47.792;9.628;2024-03-23T09:23:22;8.40;99.90
18888;DHT22;9576;47.792;9.628;2024-03-23T09:26:24;8.50;99.90
18888;DHT22;9576;47.792;9.628;2024-03-23T09:29:26;8.60;99.90
18888;DHT22;9576;47.792;9.628;2024-03-23T09:32:28;8.60;99.90
18888;DHT22;9576;47.792;9.628;2024-03-23T09:35:29;8.60;99.90
18888;DHT22;9576;47.792;9.628;2024-03-23T09:38:31;8.60;99.90
18888;DHT22;9576;47.792;9.628;2024-03-23T09:41:32;8.60;99.90
18888;DHT22;9576;47.792;9.628;2024-03-23T09:44:37;8.70;99.90
18888;DHT22;9576;47.792;9.628;2024-03-23T09:47:38;8.70;99.90
18888;DHT22;9576;47.792;9.628;2024-03-23T09:50:40;8.70;99.90
18888;DHT22;9576;47.792;9.628;2024-03-23T09:53:41;8.60;99.90
18888;DHT22;9576;47.792;9.628;2024-03-23T09:56:43;8.50;99.90
18888;DHT22;9576;47.792;9.628;2024-03-23T09:59:45;8.50;99.90
18888;DHT22;9576;47.792;9.628;2024-03-23T10:02:47;8.40;99.90
18888;DHT22;9576;47.792;9.628;2024-03-23T10:06:00;8.50;99.90
18888;DHT22;9576;47.792;9.628;2024-03-23T10:09:02;8.50;99.90
18888;DHT22;9576;47.792;9.628;2024-03-23T10:12:19;8.60;99.90
18888;DHT22;9576;47.792;9.628;2024-03-23T10:15:24;8.60;99.90
18888;DHT22;9576;47.792;9.628;2024-03-23T10:18:25;8.70;99.90
18888;DHT22;9576;47.792;9.628;2024-03-23T10:21:29;8.80;99.90
18888;DHT22;9576;47.792;9.628;2024-03-23T10:24:30;8.90;99.90
18888;DHT22;9576;47.792;9.628;2024-03-23T10:27:31;9.10;99.90
18888;DHT22;9576;47.792;9.628;2024-03-23T10:30:35;9.10;99.90
18888;DHT22;9576;47.792;9.628;2024-03-23T10:33:36;9.20;99.90
18888;DHT22;9576;47.792;9.628;2024-03-23T10:36:38;9.20;99.90
18888;DHT22;9576;47.792;9.628;2024-03-23T10:39:41;9.30;99.90
18888;DHT22;9576;47.792;9.628;2024-03-23T10:42:44;9.40;99.90
18888;DHT22;9576;47.792;9.628;2024-03-23T10:45:46;9.60;99.90
18888;DHT22;9576;47.792;9.628;2024-03-23T10:48:49;9.80;99.90
18888;DHT22;9576;47.792;9.628;2024-03-23T10:51:50;10.00;99.90
18888;DHT22;9576;47.792;9.628;2024-03-23T10:54:52;10.10;99.90
18888;DHT22;9576;47.792;9.628;2024-03-23T10:57:55;10.10;99.90
18888;DHT22;9576;47.792;9.628;2024-03-23T11:00:58;10.30;99.90
18888;DHT22;9576;47.792;9.628;2024-03-23T11:04:00;10.40;99.90
18888;DHT22;9576;47.792;9.628;2024-03-23T11:07:01;10.30;99.90
18888;DHT22;9576;47.792;9.628;2024-03-23T11:10:26;10.20;99.90
18888;DHT22;9576;47.792;9.628;2024-03-23T11:13:27;10.50;99.90
18888;DHT22;9576;47.792;9.628;2024-03-23T11:16:31;10.80;99.90
18888;DHT22;9576;47.792;9.628;2024-03-23T11:19:37;10.90;99.90
18888;DHT22;9576;47.792;9.628;2024-03-23T11:22:39;10.90;99.90
18888;DHT22;9576;47.792;9.628;2024-03-23T11:25:42;10.80;99.90
18888;DHT22;9576;47.792;9.628;2024-03-23T11:28:43;10.80;99.90
18888;DHT22;9576;47.792;9.628;2024-03-23T11:31:49;10.60;99.90
18888;DHT22;9576;47.792;9.628;2024-03-23T11:34:51;10.50;99.90
18888;DHT22;9576;47.792;9.628;2024-03-23T11:38:03;10.60;99.90
18888;DHT22;9576;47.792;9.628;2024-03-23T11:41:05;10.70;99.90
18888;DHT22;9576;47.792;9.628;2024-03-23T11:44:15;10.90;99.90
18888;DHT22;9576;47.792;9.628;2024-03-23T11:47:18;11.10;99.90
18888;DHT22;9576;47.792;9.628;2024-03-23T11:50:22;11.50;99.90
18888;DHT22;9576;47.792;9.628;2024-03-23T11:53:25;11.60;99.90
18888;DHT22;9576;47.792;9.628;2024-03-23T11:56:27;11.80;99.90
18888;DHT22;9576;47.792;9.628;2024-03-23T11:59:36;11.80;99.90
18888;DHT22;9576;47.792;9.628;2024-03-23T12:02:40;11.80;99.90
18888;DHT22;9576;47.792;9.628;2024-03-23T12:05:41;12.10;99.90
18888;DHT22;9576;47.792;9.628;2024-03-23T12:08:43;12.20;99.90
18888;DHT22;9576;47.792;9.628;2024-03-23T12:11:44;12.50;99.90
18888;DHT22;9576;47.792;9.628;2024-03-23T12:15:02;12.20;99.90
18888;DHT22;9576;47.792;9.628;2024-03-23T12:18:08;11.80;99.90
18888;DHT22;9576;47.792;9.628;2024-03-23T12:21:11;11.50;99.90
18888;DHT22;9576;47.792;9.628;2024-03-23T12:24:12;11.60;99.90
18888;DHT22;9576;47.792;9.628;2024-03-23T12:27:14;12.00;99.90
18888;DHT22;9576;47.792;9.628;2024-03-23T12:30:15;12.10;99.90
18888;DHT22;9576;47.792;9.628;2024-03-23T12:33:18;11.80;99.90
18888;DHT22;9576;47.792;9.628;2024-03-23T12:36:19;11.40;99.90
18888;DHT22;9576;47.792;9.628;2024-03-23T12:39:21;11.30;99.90
18888;DHT22;9576;47.792;9.628;2024-03-23T12:42:23;11.30;99.90
18888;DHT22;9576;47.792;9.628;2024-03-23T12:45:24;11.30;99.90
18888;DHT22;9576;47.792;9.628;2024-03-23T12:48:27;11.90;99.90
18888;DHT22;9576;47.792;9.628;2024-03-23T12:51:28;12.70;99.90
18888;DHT22;9576;47.792;9.628;2024-03-23T12:54:30;13.00;99.90
18888;DHT22;9576;47.792;9.628;2024-03-23T12:57:32;13.30;99.90
18888;DHT22;9576;47.792;9.628;2024-03-23T13:00:34;13.40;99.90
18888;DHT22;9576;47.792;9.628;2024-03-23T13:03:36;12.70;99.90
18888;DHT22;9576;47.792;9.628;2024-03-23T13:06:38;12.30;99.90
18888;DHT22;9576;47.792;9.628;2024-03-23T13:09:39;11.60;99.90
18888;DHT22;9576;47.792;9.628;2024-03-23T13:12:41;11.00;99.90
18888;DHT22;9576;47.792;9.628;2024-03-23T13:15:49;9.90;99.90
18888;DHT22;9576;47.792;9.628;2024-03-23T13:18:52;9.40;99.90
18888;DHT22;9576;47.792;9.628;2024-03-23T13:21:54;9.40;99.90
18888;DHT22;9576;47.792;9.628;2024-03-23T13:24:55;9.00;99.90
18888;DHT22;9576;47.792;9.628;2024-03-23T13:27:57;8.80;99.90
18888;DHT22;9576;47.792;9.628;2024-03-23T13:30:58;8.60;99.90
18888;DHT22;9576;47.792;9.628;2024-03-23T13:34:05;8.80;99.90
18888;DHT22;9576;47.792;9.628;2024-03-23T13:37:06;9.50;99.90
18888;DHT22;9576;47.792;9.628;2024-03-23T13:40:09;10.20;99.90
18888;DHT22;9576;47.792;9.628;2024-03-23T13:43:10;10.90;99.90
18888;DHT22;9576;47.792;9.628;2024-03-23T13:46:12;11.20;99.90
18888;DHT22;9576;47.792;9.628;2024-03-23T13:49:24;11.50;99.90
18888;DHT22;9576;47.792;9.628;2024-03-23T13:52:26;12.10;99.90
18888;DHT22;9576;47.792;9.628;2024-03-23T13:55:28;12.20;99.90
18888;DHT22;9576;47.792;9.628;2024-03-23T13:58:29;12.50;99.90
18888;DHT22;9576;47.792;9.628;2024-03-23T14:01:31;12.30;99.90
18888;DHT22;9576;47.792;9.628;2024-03-23T14:04:33;11.90;99.90
18888;DHT22;9576;47.792;9.628;2024-03-23T14:07:36;12.20;99.90
18888;DHT22;9576;47.792;9.628;2024-03-23T14:10:40;12.70;99.90
18888;DHT22;9576;47.792;9.628;2024-03-23T14:13:42;12.30;99.90
18888;DHT22;9576;47.792;9.628;2024-03-23T14:16:44;12.50;99.90
18888;DHT22;9576;47.792;9.628;2024-03-23T14:19:47;12.90;99.90
18888;DHT22;9576;47.792;9.628;2024-03-23T14:22:48;13.50;99.90
18888;DHT22;9576;47.792;9.628;2024-03-23T14:25:52;13.80;99.90
18888;DHT22;9576;47.792;9.628;2024-03-23T14:28:53;14.00;99.90
18888;DHT22;9576;47.792;9.628;2024-03-23T14:31:55;13.30;99.90
18888;DHT22;9576;47.792;9.628;2024-03-23T14:34:57;13.40;99.90
18888;DHT22;9576;47.792;9.628;2024-03-23T14:37:59;13.20;99.90
18888;DHT22;9576;47.792;9.628;2024-03-23T14:41:00;14.10;99.90
18888;DHT22;9576;47.792;9.628;2024-03-23T14:44:03;14.80;99.90
18888;DHT22;9576;47.792;9.628;2024-03-23T14:47:05;14.30;99.90
18888;DHT22;9576;47.792;9.628;2024-03-23T14:50:08;13.80;99.90
18888;DHT22;9576;47.792;9.628;2024-03-23T14:53:14;14.40;99.90
18888;DHT22;9576;47.792;9.628;2024-03-23T14:56:17;14.10;99.90
18888;DHT22;9576;47.792;9.628;2024-03-23T14:59:18;14.40;99.90
18888;DHT22;9576;47.792;9.628;2024-03-23T15:02:21;13.60;99.90
18888;DHT22;9576;47.792;9.628;2024-03-23T15:05:23;12.80;99.90
18888;DHT22;9576;47.792;9.628;2024-03-23T15:08:25;12.60;99.90
18888;DHT22;9576;47.792;9.628;2024-03-23T15:11:26;12.80;99.90
18888;DHT22;9576;47.792;9.628;2024-03-23T15:14:28;12.70;99.90
18888;DHT22;9576;47.792;9.628;2024-03-23T15:17:29;13.30;99.90
18888;DHT22;9576;47.792;9.628;2024-03-23T15:20:36;13.70;99.90
18888;DHT22;9576;47.792;9.628;2024-03-23T15:23:37;13.20;99.90
18888;DHT22;9576;47.792;9.628;2024-03-23T15:26:39;13.50;99.90
18888;DHT22;9576;47.792;9.628;2024-03-23T15:29:41;14.30;99.90
18888;DHT22;9576;47.792;9.628;2024-03-23T15:32:46;15.50;99.90
18888;DHT22;9576;47.792;9.628;2024-03-23T15:35:49;16.60;99.90
18888;DHT22;9576;47.792;9.628;2024-03-23T15:38:50;16.60;99.90
18888;DHT22;9576;47.792;9.628;2024-03-23T15:41:51;16.60;99.90
18888;DHT22;9576;47.792;9.628;2024-03-23T15:44:55;15.80;99.90
18888;DHT22;9576;47.792;9.628;2024-03-23T15:47:55;15.30;99.90
18888;DHT22;9576;47.792;9.628;2024-03-23T15:51:00;14.50;99.90
18888;DHT22;9576;47.792;9.628;2024-03-23T15:54:02;15.00;99.90
18888;DHT22;9576;47.792;9.628;2024-03-23T15:57:04;15.40;99.90
18888;DHT22;9576;47.792;9.628;2024-03-23T16:00:06;15.80;99.90
18888;DHT22;9576;47.792;9.628;2024-03-23T16:03:10;16.10;99.90
18888;DHT22;9576;47.792;9.628;2024-03-23T16:06:12;16.40;99.70
18888;DHT22;9576;47.792;9.628;2024-03-23T16:09:14;17.20;99.60
18888;DHT22;9576;47.792;9.628;2024-03-23T16:12:15;17.00;97.30
18888;DHT22;9576;47.792;9.628;2024-03-23T16:15:17;16.40;97.20
18888;DHT22;9576;47.792;9.628;2024-03-23T16:18:18;15.30;98.70
18888;DHT22;9576;47.792;9.628;2024-03-23T16:21:21;15.30;99.10
18888;DHT22;9576;47.792;9.628;2024-03-23T16:24:23;15.40;98.70
18888;DHT22;9576;47.792;9.628;2024-03-23T16:27:25;15.50;98.90
18888;DHT22;9576;47.792;9.628;2024-03-23T16:30:26;15.50;98.50
18888;DHT22;9576;47.792;9.628;2024-03-23T16:33:28;15.20;98.60
18888;DHT22;9576;47.792;9.628;2024-03-23T16:36:33;14.40;99.70
18888;DHT22;9576;47.792;9.628;2024-03-23T16:39:34;13.90;99.90
18888;DHT22;9576;47.792;9.628;2024-03-23T16:42:36;14.00;99.90
18888;DHT22;9576;47.792;9.628;2024-03-23T16:45:37;14.10;99.30
18888;DHT22;9576;47.792;9.628;2024-03-23T16:48:39;13.50;98.80
18888;DHT22;9576;47.792;9.628;2024-03-23T16:51:41;12.40;99.00
18888;DHT22;9576;47.792;9.628;2024-03-23T16:54:43;11.30;99.10
18888;DHT22;9576;47.792;9.628;2024-03-23T16:57:44;10.50;99.50
18888;DHT22;9576;47.792;9.628;2024-03-23T17:00:46;10.10;99.90
18888;DHT22;9576;47.792;9.628;2024-03-23T17:03:49;9.80;99.90
18888;DHT22;9576;47.792;9.628;2024-03-23T17:06:53;9.60;99.90
18888;DHT22;9576;47.792;9.628;2024-03-23T17:09:54;9.50;99.90
18888;DHT22;9576;47.792;9.628;2024-03-23T17:12:55;9.40;99.90
18888;DHT22;9576;47.792;9.628;2024-03-23T17:15:56;9.10;99.90
18888;DHT22;9576;47.792;9.628;2024-03-23T17:18:59;9.00;99.90
18888;DHT22;9576;47.792;9.628;2024-03-23T17:22:02;8.90;99.90
18888;DHT22;9576;47.792;9.628;2024-03-23T17:25:04;8.80;99.90
18888;DHT22;9576;47.792;9.628;2024-03-23T17:28:06;8.70;99.90
18888;DHT22;9576;47.792;9.628;2024-03-23T17:31:15;8.60;99.90
18888;DHT22;9576;47.792;9.628;2024-03-23T17:34:16;8.40;99.90
18888;DHT22;9576;47.792;9.628;2024-03-23T17:37:19;8.30;99.90
18888;DHT22;9576;47.792;9.628;2024-03-23T17:40:20;8.30;99.90
18888;DHT22;9576;47.792;9.628;2024-03-23T17:43:21;8.20;99.90
18888;DHT22;9576;47.792;9.628;2024-03-23T17:46:23;8.10;99.90
18888;DHT22;9576;47.792;9.628;2024-03-23T17:49:24;8.00;99.90
18888;DHT22;9576;47.792;9.628;2024-03-23T17:52:27;7.90;99.90
18888;DHT22;9576;47.792;9.628;2024-03-23T17:55:28;8.00;99.90
18888;DHT22;9576;47.792;9.628;2024-03-23T17:58:30;8.00;99.90
18888;DHT22;9576;47.792;9.628;2024-03-23T18:01:31;8.00;99.90
18888;DHT22;9576;47.792;9.628;2024-03-23T18:04:33;7.90;99.90
18888;DHT22;9576;47.792;9.628;2024-03-23T18:07:35;7.80;99.90
18888;DHT22;9576;47.792;9.628;2024-03-23T18:10:37;7.70;99.90
18888;DHT22;9576;47.792;9.628;2024-03-23T18:13:38;7.60;99.90
18888;DHT22;9576;47.792;9.628;2024-03-23T18:16:41;7.60;99.90
18888;DHT22;9576;47.792;9.628;2024-03-23T18:19:42;7.50;99.90
18888;DHT22;9576;47.792;9.628;2024-03-23T18:22:46;7.50;99.90
18888;DHT22;9576;47.792;9.628;2024-03-23T18:25:51;7.50;99.90
18888;DHT22;9576;47.792;9.628;2024-03-23T18:28:53;7.50;99.90
18888;DHT22;9576;47.792;9.628;2024-03-23T18:31:55;7.50;99.90
18888;DHT22;9576;47.792;9.628;2024-03-23T18:34:56;7.50;99.90
18888;DHT22;9576;47.792;9.628;2024-03-23T18:37:59;7.40;99.90
18888;DHT22;9576;47.792;9.628;2024-03-23T18:41:00;7.20;99.90
18888;DHT22;9576;47.792;9.628;2024-03-23T18:44:01;6.90;99.90
18888;DHT22;9576;47.792;9.628;2024-03-23T18:47:04;6.50;99.90
18888;DHT22;9576;47.792;9.628;2024-03-23T18:50:05;6.20;99.90
18888;DHT22;9576;47.792;9.628;2024-03-23T18:53:10;6.00;99.90
18888;DHT22;9576;47.792;9.628;2024-03-23T18:56:11;5.90;99.90
18888;DHT22;9576;47.792;9.628;2024-03-23T18:59:13;5.80;99.90
18888;DHT22;9576;47.792;9.628;2024-03-23T19:02:14;5.50;99.90
18888;DHT22;9576;47.792;9.628;2024-03-23T19:05:16;5.00;99.90
18888;DHT22;9576;47.792;9.628;2024-03-23T19:08:18;4.60;99.90
18888;DHT22;9576;47.792;9.628;2024-03-23T19:11:20;4.40;99.90
18888;DHT22;9576;47.792;9.628;2024-03-23T19:14:20;4.30;99.90
18888;DHT22;9576;47.792;9.628;2024-03-23T19:17:22;4.30;99.90
18888;DHT22;9576;47.792;9.628;2024-03-23T19:20:23;4.20;99.90
18888;DHT22;9576;47.792;9.628;2024-03-23T19:23:27;4.20;99.90
18888;DHT22;9576;47.792;9.628;2024-03-23T19:26:29;4.20;99.90
18888;DHT22;9576;47.792;9.628;2024-03-23T19:29:31;4.30;99.90
18888;DHT22;9576;47.792;9.628;2024-03-23T19:32:32;4.30;99.90
18888;DHT22;9576;47.792;9.628;2024-03-23T19:35:34;4.10;99.90
18888;DHT22;9576;47.792;9.628;2024-03-23T19:38:37;4.00;99.90
18888;DHT22;9576;47.792;9.628;2024-03-23T19:41:39;3.90;99.90
18888;DHT22;9576;47.792;9.628;2024-03-23T19:44:42;3.80;99.90
18888;DHT22;9576;47.792;9.628;2024-03-23T19:47:44;3.80;99.90
18888;DHT22;9576;47.792;9.628;2024-03-23T19:50:53;3.90;99.90
18888;DHT22;9576;47.792;9.628;2024-03-23T19:53:56;3.80;99.90
18888;DHT22;9576;47.792;9.628;2024-03-23T19:56:57;3.80;99.90
18888;DHT22;9576;47.792;9.628;2024-03-23T19:59:59;3.80;99.90
18888;DHT22;9576;47.792;9.628;2024-03-23T20:03:00;3.80;99.90
18888;DHT22;9576;47.792;9.628;2024-03-23T20:06:06;3.90;99.90
18888;DHT22;9576;47.792;9.628;2024-03-23T20:09:10;3.90;99.90
18888;DHT22;9576;47.792;9.628;2024-03-23T20:12:12;3.80;99.90
18888;DHT22;9576;47.792;9.628;2024-03-23T20:15:13;3.80;99.90
18888;DHT22;9576;47.792;9.628;2024-03-23T20:18:15;3.80;99.90
18888;DHT22;9576;47.792;9.628;2024-03-23T20:21:16;3.80;99.90
18888;DHT22;9576;47.792;9.628;2024-03-23T20:24:19;3.60;99.90
18888;DHT22;9576;47.792;9.628;2024-03-23T20:27:20;3.60;99.90
18888;DHT22;9576;47.792;9.628;2024-03-23T20:30:22;3.60;99.90
18888;DHT22;9576;47.792;9.628;2024-03-23T20:33:23;3.60;99.90
18888;DHT22;9576;47.792;9.628;2024-03-23T20:36:25;3.60;99.90
18888;DHT22;9576;47.792;9.628;2024-03-23T20:39:27;3.70;99.90